Flight Track Log - Related Links

Times and Time Zones

All times are in EDT time to prevent confusion due to time zone crossing. See the OPT404 flight status page for this flight to view local times or setup timezone preferences in your user account.

Time Position Orientation Groundspeed Altitude Reporting Facility
EDT Latitude Longitude Course Direction KTS MPH feet Rate Location/Type
Tue 04:31:08 PM 44.7042 -111.1708 233° Southwest 185 213 11,600  Level Salt Lake Center
Tue 04:32:09 PM 44.6481 -111.2047 203° Southwest 193 222 15,200 2,390 Climbing Salt Lake Center
Tue 04:33:00 PM 44.3217 -111.7721 229° Southwest  Level FlightAware Approximate
Tue 04:33:11 PM 44.6081 -111.2681 228° Southwest 217 250 16,500  Level Salt Lake Center
Tue 04:34:00 PM 44.2650 -111.8806 230° Southwest  Level FlightAware Approximate
Tue 04:34:13 PM 44.5664 -111.3433 232° Southwest 240 276 18,300  Level Salt Lake Center
Tue 04:35:00 PM 44.2016 -111.9863 230° Southwest  Level FlightAware Approximate
Tue 04:35:15 PM 44.5086 -111.4492 233° Southwest 277 319 20,500  Level Salt Lake Center
Tue 04:36:00 PM 44.1408 -112.0948 233° Southwest  Level FlightAware Approximate
Tue 04:36:16 PM 44.4544 -111.5486 233° Southwest 312 359 22,400  Level Salt Lake Center
Tue 04:37:18 PM 44.3986 -111.6508 233° Southwest 332 382 23,900 1,694 Climbing Salt Lake Center
Tue 04:38:20 PM 44.3267 -111.7803 232° Southwest 364 419 25,900 1,902 Climbing Salt Lake Center
Tue 04:39:21 PM 44.2644 -111.8947 233° Southwest 383 441 27,800 2,000 Climbing Salt Lake Center
Tue 04:40:23 PM 44.1911 -112.0272 232° Southwest 387 445 30,000 1,935 Climbing Salt Lake Center
Tue 04:41:25 PM 44.1269 -112.1375 231° Southwest 384 442 31,800 1,805 Climbing Salt Lake Center
Tue 04:42:26 PM 44.0503 -112.2642 230° Southwest 384 442 33,700 1,366 Climbing Salt Lake Center
Tue 04:43:28 PM 43.9797 -112.3689 227° Southwest 387 445 34,600 878 Climbing Salt Lake Center
Tue 04:44:29 PM 43.9061 -112.4772 227° Southwest 400 460 35,500 976 Climbing Salt Lake Center
Tue 04:45:31 PM 43.8178 -112.6036 226° Southwest 408 470 36,600 968 Climbing Salt Lake Center
Tue 04:46:33 PM 43.7417 -112.7131 226° Southwest 411 473 37,500 927 Climbing Salt Lake Center
Tue 04:47:34 PM 43.6558 -112.8417 227° Southwest 409 471 38,500 878 Climbing Salt Lake Center
Tue 04:48:36 PM 43.5808 -112.9472 226° Southwest 404 465 39,300 629 Climbing Salt Lake Center
Tue 04:49:38 PM 43.4936 -113.0714 226° Southwest 403 464 39,800 488 Climbing Salt Lake Center
Tue 04:50:39 PM 43.4189 -113.1794 226° Southwest 407 468 40,300 439 Climbing Salt Lake Center
Tue 04:51:41 PM 43.3439 -113.2875 226° Southwest 409 471 40,700 439 Climbing Salt Lake Center
Tue 04:52:42 PM 43.2644 -113.4194 230° Southwest 401 461 41,200 439 Climbing Salt Lake Center
Tue 04:53:44 PM 43.2072 -113.5408 237° Southwest 397 457 41,600 435 Climbing Salt Lake Center
Tue 04:54:46 PM 43.1414 -113.6828 238° Southwest 396 456 42,100 439 Climbing Salt Lake Center
Tue 04:55:47 PM 43.0844 -113.8011 237° Southwest 392 451 42,500 439 Climbing Salt Lake Center
Tue 04:56:49 PM 43.0181 -113.9403 237° Southwest 402 463 43,000 242 Climbing Salt Lake Center
Tue 04:57:51 PM 42.9606 -114.0608 237° Southwest 385 443 43,000  Level Salt Lake Center
Tue 04:58:52 PM 42.9014 -114.1853 237° Southwest 391 450 43,000  Level Salt Lake Center
Tue 04:59:54 PM 42.8414 -114.3094 237° Southwest 394 453 43,000  Level Salt Lake Center
Tue 05:00:56 PM 42.7800 -114.4358 237° Southwest 400 460 43,000  Level Salt Lake Center
Tue 05:01:57 PM 42.7142 -114.5728 237° Southwest 400 460 43,000  Level Salt Lake Center
Tue 05:02:59 PM 42.6461 -114.7131 237° Southwest 399 459 43,000  Level Salt Lake Center
Tue 05:04:01 PM 42.5858 -114.8364 236° Southwest 396 456 43,000  Level Salt Lake Center
Tue 05:05:03 PM 42.5297 -114.9517 237° Southwest 396 456 43,000  Level Salt Lake Center
Tue 05:06:04 PM 42.4617 -115.0906 236° Southwest 397 457 43,000  Level Salt Lake Center
Tue 05:07:06 PM 42.4028 -115.2075 236° Southwest 394 453 43,000  Level Salt Lake Center
Tue 05:08:07 PM 42.3344 -115.3447 236° Southwest 394 453 43,000  Level Salt Lake Center
Tue 05:09:09 PM 42.2758 -115.4608 236° Southwest 392 451 43,000  Level Salt Lake Center
Tue 05:10:11 PM 42.2075 -115.5967 236° Southwest 391 450 43,000  Level Salt Lake Center
Tue 05:11:13 PM 42.1494 -115.7119 236° Southwest 388 447 43,000  Level Salt Lake Center
Tue 05:12:14 PM 42.0903 -115.8294 236° Southwest 393 452 43,000  Level Salt Lake Center
Tue 05:13:16 PM 42.0189 -115.9669 235° Southwest 392 451 43,000  Level Salt Lake Center
Tue 05:14:18 PM 41.9600 -116.0850 236° Southwest 396 456 43,000  Level Salt Lake Center
Tue 05:15:19 PM 41.8997 -116.2014 235° Southwest 397 457 43,000  Level Salt Lake Center
Tue 05:16:21 PM 41.8303 -116.3372 236° Southwest 397 457 43,000  Level Salt Lake Center
Tue 05:17:23 PM 41.7706 -116.4522 235° Southwest 393 452 43,000  Level Salt Lake Center
Tue 05:18:25 PM 41.7006 -116.5892 236° Southwest 400 460 43,000  Level Salt Lake Center
Tue 05:19:26 PM 41.6406 -116.7044 235° Southwest 397 457 43,000  Level Salt Lake Center
Tue 05:20:28 PM 41.5686 -116.8397 235° Southwest 399 459 43,000  Level Salt Lake Center
Tue 05:21:30 PM 41.5086 -116.9544 235° Southwest 396 456 43,000  Level Salt Lake Center
Tue 05:22:32 PM 41.4367 -117.0906 235° Southwest 402 463 43,000  Level Salt Lake Center
Tue 05:23:33 PM 41.3747 -117.2075 235° Southwest 403 464 43,000  Level Salt Lake Center
Tue 05:24:35 PM 41.3142 -117.3233 235° Southwest 401 461 43,000  Level Salt Lake Center
Tue 05:25:37 PM 41.2422 -117.4575 235° Southwest 400 460 43,000  Level Salt Lake Center
Tue 05:26:38 PM 41.1803 -117.5744 235° Southwest 403 464 43,000  Level Salt Lake Center
Tue 05:27:40 PM 41.1072 -117.7092 234° Southwest 405 466 43,000  Level Salt Lake Center
Tue 05:28:42 PM 41.0442 -117.8247 234° Southwest 404 465 43,000  Level Salt Lake Center
Tue 05:29:44 PM 40.9719 -117.9589 235° Southwest 403 464 43,000  Level Salt Lake Center
Tue 05:30:45 PM 40.9072 -118.0747 234° Southwest 407 468 43,000  Level Salt Lake Center
Tue 05:31:47 PM 40.8350 -118.2078 234° Southwest 403 464 43,000  Level Salt Lake Center
Tue 05:32:49 PM 40.7717 -118.3219 234° Southwest 402 463 43,000  Level Salt Lake Center
Tue 05:33:51 PM 40.7094 -118.4364 234° Southwest 402 463 43,000  Level Salt Lake Center
Tue 05:34:52 PM 40.6347 -118.5689 233° Southwest 403 464 43,000  Level Salt Lake Center
Tue 05:35:49 PM 40.5756 -118.6772 234° Southwest 401 461 43,000  Level Oakland Center
Tue 05:36:51 PM 40.5083 -118.7969 234° Southwest 404 465 43,000  Level Oakland Center
Tue 05:37:52 PM 40.4425 -118.9183 235° Southwest 407 468 43,000  Level Oakland Center
Tue 05:38:54 PM 40.3750 -119.0375 233° Southwest 408 470 43,000  Level Oakland Center
Tue 05:39:55 PM 40.2950 -119.1803 234° Southwest 407 468 43,000  Level Oakland Center
Tue 05:40:57 PM 40.2247 -119.3003 233° Southwest 414 476 43,000  Level Oakland Center
Tue 05:41:58 PM 40.1564 -119.4200 233° Southwest 413 475 43,000  Level Oakland Center
Tue 05:43:00 PM 40.0892 -119.5375 233° Southwest 409 471 43,000  Level Oakland Center
Tue 05:44:01 PM 40.0206 -119.6561 233° Southwest 409 471 43,000  Level Oakland Center
Tue 05:45:02 PM 39.9531 -119.7731 233° Southwest 407 468 43,000  Level Oakland Center
Tue 05:46:04 PM 39.8869 -119.8889 233° Southwest 402 463 43,000  Level Oakland Center
Tue 05:47:05 PM 39.8178 -120.0067 233° Southwest 408 470 43,000  Level Oakland Center
Tue 05:48:07 PM 39.7442 -120.1347 233° Southwest 406 467 43,000  Level Oakland Center
Tue 05:49:08 PM 39.6758 -120.2514 233° Southwest 406 467 43,000  Level Oakland Center
Tue 05:50:09 PM 39.6081 -120.3678 233° Southwest 405 466 43,000  Level Oakland Center
Tue 05:51:11 PM 39.5406 -120.4806 232° Southwest 399 459 43,000  Level Oakland Center
Tue 05:52:12 PM 39.4600 -120.6167 233° Southwest 398 458 43,000  Level Oakland Center
Tue 05:53:14 PM 39.3925 -120.7306 233° Southwest 400 460 43,000  Level Oakland Center
Tue 05:54:15 PM 39.3256 -120.8433 233° Southwest 397 457 43,000  Level Oakland Center
Tue 05:55:17 PM 39.2581 -120.9547 232° Southwest 396 456 43,000  Level Oakland Center
Tue 05:56:18 PM 39.1911 -121.0675 233° Southwest 398 458 43,000  Level Oakland Center
Tue 05:57:20 PM 39.1250 -121.1792 233° Southwest 395 455 43,000  Level Oakland Center
Tue 05:58:21 PM 39.0572 -121.2900 232° Southwest 396 456 43,000  Level Oakland Center
Tue 05:59:23 PM 38.9903 -121.4014 232° Southwest 398 458 43,000 -49 Level Oakland Center
Tue 06:00:24 PM 38.9097 -121.5350 232° Southwest 398 458 42,900 -293 Descending Oakland Center
Tue 06:01:26 PM 38.8417 -121.6464 232° Southwest 399 459 42,400 -488 Descending Oakland Center
Tue 06:02:27 PM 38.7722 -121.7578 231° Southwest 406 467 41,900 -488 Descending Oakland Center
Tue 06:03:29 PM 38.7044 -121.8694 232° Southwest 401 461 41,400 -585 Descending Oakland Center
Tue 06:04:30 PM 38.6339 -121.9850 232° Southwest 394 453 40,700 -585 Descending Oakland Center
Tue 06:05:32 PM 38.5694 -122.0900 232° Southwest 378 435 40,200 -634 Descending Oakland Center
Tue 06:06:33 PM 38.5053 -122.1936 232° Southwest 373 429 39,400 -1,951 Descending Oakland Center
Tue 06:07:35 PM 38.4403 -122.2975 231° Southwest 374 430 36,200 -3,220 Descending Oakland Center
Tue 06:08:36 PM 38.3717 -122.4058 231° Southwest 393 452 32,800 -3,707 Descending Oakland Center
Tue 06:09:38 PM 38.2914 -122.5356 232° Southwest 394 453 28,600 -3,951 Descending Oakland Center
Tue 06:10:39 PM 38.2156 -122.6356 226° Southwest 401 461 24,700 -4,426 Descending Oakland Center
Tue 06:11:40 PM 38.1094 -122.6728 195° South 405 466 19,600 -4,829 Descending Oakland Center
Tue 06:12:42 PM 37.9983 -122.6747 181° South 408 470 14,800 -4,146 Descending Oakland Center
Tue 06:13:43 PM 37.8953 -122.6650 176° South 394 453 11,100 -1,902 Descending Oakland Center
Tue 06:14:45 PM 37.8186 -122.5889 142° Southeast 291 335 10,900 -98 Descending Oakland Center
Tue 06:15:46 PM 37.7719 -122.5383 139° Southeast 234 269 10,900  Level Oakland Center
Tue 06:16:47 PM 37.7367 -122.4811 128° Southeast 218 251 10,900  Level Oakland Center
Tue 06:17:49 PM 37.7122 -122.4142 115° Southeast 214 246 10,900 -537 Level Oakland Center
Tue 06:18:50 PM 37.6853 -122.3453 116° Southeast 220 253 9,800 -1,033 Descending Oakland Center
Tue 06:19:51 PM 37.6600 -122.2775 115° Southeast 217 250 8,800 -1,113 Descending Oakland Center
Tue 06:20:54 PM 37.6333 -122.2000 113° Southeast 206 237 7,500 -1,220 Descending Northern Cal TRACON
Tue 06:21:54 PM 37.5919 -122.1547 139° Southeast 218 251 6,300 -1,140 Descending Oakland Center
Tue 06:22:55 PM 37.5614 -122.2028 231° Southwest 203 234 5,200 -1,415 Descending Oakland Center
Tue 06:23:57 PM 37.5733 -122.2633 284° West 190 219 3,400 -2,000 Descending Oakland Center
Tue 06:24:58 PM 37.5889 -122.3117 292° West 169 194 1,100 -1,525 Descending Oakland Center
Tue 06:25:59 PM 37.6075 -122.3558 298° West 153 176 300 -787 Descending Oakland Center

Login

Don't have an account? Register now (free) for customized features, flight alerts, and more!